Terminal Aerodrome Forecast
Issued by NWS

Home | Current Version | Previous Version | Graphics & Text | Print | Product List | Glossary On
Versions: 1 2 3 4 5 6 7 8 9 10 11 12 13 14 15 16 17 18 19 20 21 22 23 24 25 26
000
FTUS45 KGGW 221720
TAFGDV
TAF
KGDV 221720Z 2218/2318 09018G27KT P6SM -SHRA FEW015 OVC050
     FM222100 09020G29KT P6SM BKN045
     FM222200 09019G29KT P6SM -SHRA OVC045
     FM230400 09016G24KT P6SM -RA OVC025
     FM230600 09014KT P6SM -RA OVC015=

USA.gov is the U.S. government's official web portal to all federal, state and local government web resources and services.